Time;durP1;ratioP1;P1;durP2;ratioP2;P2;SDS_P1;SDS_P2;PMS_P1;PMS_P2;Temp;Humidity;BMP_temperature;BMP_pressure;BME280_temperature;BME280_humidity;BME280_pressure;Samples;Min_cycle;Max_cycle;Signal;HPM_P1;HPM_P2
2023/09/16 00:01:52;;;;;;;12.60;9.63;;;14.50;99.90;;;;;;5046647;28;20127;-56
2023/09/16 00:04:21;;;;;;;11.23;8.95;;;14.50;99.90;;;;;;5061562;28;20060;-54
2023/09/16 00:06:46;;;;;;;11.20;8.75;;;14.50;99.90;;;;;;5061844;28;20478;-56
2023/09/16 00:09:12;;;;;;;10.80;9.00;;;14.40;99.90;;;;;;5059714;28;20043;-55
2023/09/16 00:11:38;;;;;;;11.30;9.70;;;14.40;99.90;;;;;;5045962;28;20043;-56
2023/09/16 00:14:03;;;;;;;12.55;11.23;;;14.40;99.90;;;;;;5061654;28;20476;-56
2023/09/16 00:16:29;;;;;;;12.35;9.82;;;14.40;99.90;;;;;;5061959;28;20119;-55
2023/09/16 00:18:56;;;;;;;11.57;10.32;;;14.30;99.90;;;;;;5060210;28;20048;-55
2023/09/16 00:21:22;;;;;;;12.18;9.48;;;14.30;99.90;;;;;;5061282;28;20053;-57
2023/09/16 00:23:48;;;;;;;10.15;8.82;;;14.30;99.90;;;;;;5059899;28;20080;-53
2023/09/16 00:26:14;;;;;;;13.43;11.60;;;14.30;99.90;;;;;;5050878;28;20076;-56
2023/09/16 00:28:40;;;;;;;11.65;9.38;;;14.30;99.90;;;;;;5047264;28;20059;-56
2023/09/16 00:31:07;;;;;;;12.20;9.27;;;14.30;99.90;;;;;;5047545;28;20045;-55
2023/09/16 00:33:33;;;;;;;13.40;10.68;;;14.30;99.90;;;;;;5068905;28;20133;-56
2023/09/16 00:35:58;;;;;;;12.77;10.25;;;14.30;99.90;;;;;;5064167;28;20483;-54
2023/09/16 00:38:24;;;;;;;17.02;13.38;;;14.30;99.90;;;;;;5060580;28;20503;-55
2023/09/16 00:40:51;;;;;;;13.23;10.13;;;14.30;99.90;;;;;;5047464;28;20052;-56
2023/09/16 00:43:17;;;;;;;16.05;13.98;;;14.30;99.90;;;;;;5065699;28;20059;-56
2023/09/16 00:45:43;;;;;;;14.35;12.23;;;14.20;99.90;;;;;;5050338;28;20040;-57
2023/09/16 00:48:12;;;;;;;12.65;10.73;;;14.20;99.90;;;;;;5064597;28;20036;-56
2023/09/16 00:50:38;;;;;;;12.30;10.48;;;14.20;99.90;;;;;;5064112;28;20066;-57
2023/09/16 00:53:04;;;;;;;13.32;11.93;;;14.20;99.90;;;;;;5063640;28;20041;-57
2023/09/16 00:55:30;;;;;;;11.80;10.60;;;14.20;99.90;;;;;;5062882;28;21906;-56
2023/09/16 00:57:57;;;;;;;15.90;13.27;;;14.20;99.90;;;;;;5066712;28;20068;-56
2023/09/16 01:00:26;;;;;;;13.05;10.35;;;14.20;99.90;;;;;;5064733;28;20123;-56
2023/09/16 01:02:56;;;;;;;16.52;12.90;;;14.10;99.90;;;;;;5081952;28;20043;-56
2023/09/16 01:05:21;;;;;;;16.30;12.52;;;14.10;99.90;;;;;;5057766;28;20071;-56
2023/09/16 01:07:48;;;;;;;20.65;12.85;;;14.10;99.90;;;;;;5059311;28;20069;-56
2023/09/16 01:10:14;;;;;;;15.07;13.35;;;14.10;99.90;;;;;;5060270;28;20532;-56
2023/09/16 01:12:42;;;;;;;13.07;11.43;;;14.10;99.90;;;;;;5061175;28;20131;-56
2023/09/16 01:15:10;;;;;;;12.95;11.10;;;14.10;99.90;;;;;;5064696;28;20036;-55
2023/09/16 01:18:10;;;;;;;14.88;13.38;;;14.10;99.90;;;;;;5046905;28;20492;-56
2023/09/16 01:20:39;;;;;;;15.63;13.70;;;14.10;99.90;;;;;;5059565;28;20132;-56
2023/09/16 01:23:06;;;;;;;10.90;9.27;;;14.00;99.90;;;;;;5046207;28;20040;-56
2023/09/16 01:25:31;;;;;;;14.20;12.75;;;14.00;99.90;;;;;;5060923;28;20105;-57
2023/09/16 01:27:57;;;;;;;13.50;11.55;;;13.90;99.90;;;;;;5060655;28;20044;-56
2023/09/16 01:30:27;;;;;;;13.63;12.23;;;13.90;99.90;;;;;;5064320;28;20041;-56
2023/09/16 01:33:22;;;;;;;12.18;10.57;;;13.90;99.90;;;;;;5063681;28;20048;-56
2023/09/16 01:35:54;;;;;;;12.07;10.75;;;13.90;99.90;;;;;;5062645;28;20041;-56
2023/09/16 01:38:22;;;;;;;12.07;10.80;;;13.90;99.90;;;;;;5061554;28;20044;-56
2023/09/16 01:40:53;;;;;;;14.13;10.20;;;13.80;99.90;;;;;;5046162;28;20082;-55
2023/09/16 01:43:19;;;;;;;14.52;13.02;;;13.80;99.90;;;;;;5044192;28;20048;-56
2023/09/16 01:45:45;;;;;;;15.88;14.15;;;13.80;99.90;;;;;;5064402;28;20048;-57
2023/09/16 01:48:11;;;;;;;16.00;14.40;;;13.80;99.90;;;;;;5064544;28;20423;-56
2023/09/16 01:50:37;;;;;;;16.35;14.65;;;13.80;99.90;;;;;;5059465;28;20083;-56
2023/09/16 01:53:06;;;;;;;15.13;13.60;;;13.80;99.90;;;;;;5062258;28;20098;-55
2023/09/16 01:55:33;;;;;;;13.77;11.73;;;13.80;99.90;;;;;;5063598;28;20047;-56
2023/09/16 01:57:58;;;;;;;14.43;12.82;;;13.70;99.90;;;;;;5044793;28;20399;-56
2023/09/16 02:00:24;;;;;;;15.98;14.05;;;13.70;99.90;;;;;;5060900;28;20039;-55
2023/09/16 02:02:51;;;;;;;16.17;14.48;;;13.70;99.90;;;;;;5059831;28;20476;-57
2023/09/16 02:05:17;;;;;;;16.25;14.68;;;13.70;99.90;;;;;;5061891;28;20124;-56
2023/09/16 02:07:42;;;;;;;15.15;13.65;;;13.70;99.90;;;;;;5058193;28;20028;-57
2023/09/16 02:10:09;;;;;;;14.10;12.60;;;13.70;99.90;;;;;;5064424;28;20067;-57
2023/09/16 02:12:36;;;;;;;14.45;12.15;;;13.70;99.90;;;;;;5046823;28;20040;-56
2023/09/16 02:15:07;;;;;;;17.30;15.45;;;13.70;99.90;;;;;;5062451;28;20079;-55
2023/09/16 02:17:33;;;;;;;15.70;13.88;;;13.60;99.90;;;;;;5063079;28;20119;-57
2023/09/16 02:19:58;;;;;;;16.33;14.60;;;13.60;99.90;;;;;;5066556;28;20127;-56
2023/09/16 02:22:24;;;;;;;17.27;15.23;;;13.60;99.90;;;;;;5047297;28;20052;-56
2023/09/16 02:24:50;;;;;;;19.23;16.73;;;13.60;99.90;;;;;;5047868;28;20407;-57
2023/09/16 02:27:17;;;;;;;16.98;15.20;;;13.50;99.90;;;;;;5066726;28;20051;-57
2023/09/16 02:29:42;;;;;;;20.00;17.80;;;13.50;99.90;;;;;;5065220;28;20117;-57
2023/09/16 02:32:08;;;;;;;17.52;15.23;;;13.50;99.90;;;;;;5079856;28;20040;-55
2023/09/16 02:34:36;;;;;;;19.00;17.10;;;13.50;99.90;;;;;;5046267;28;20036;-56
2023/09/16 02:37:02;;;;;;;19.85;16.65;;;13.50;99.90;;;;;;5044836;28;20524;-56
2023/09/16 02:39:27;;;;;;;17.38;15.55;;;13.50;99.90;;;;;;5060715;28;20124;-57
2023/09/16 02:41:53;;;;;;;20.00;17.92;;;13.50;99.90;;;;;;5046048;28;20135;-56
2023/09/16 02:44:19;;;;;;;20.52;18.30;;;13.50;99.90;;;;;;5060791;28;20053;-57
2023/09/16 02:46:45;;;;;;;16.80;15.10;;;13.50;99.90;;;;;;5046930;28;20109;-57
2023/09/16 02:49:11;;;;;;;17.40;15.55;;;13.50;99.90;;;;;;5060886;28;20071;-56
2023/09/16 02:51:37;;;;;;;16.50;14.57;;;13.40;99.90;;;;;;5063086;28;20040;-55
2023/09/16 02:54:05;;;;;;;15.88;14.20;;;13.40;99.90;;;;;;5061189;28;20040;-55
2023/09/16 02:56:31;;;;;;;18.50;16.67;;;13.40;99.90;;;;;;5045615;28;20044;-54
2023/09/16 02:58:57;;;;;;;21.52;16.30;;;13.40;99.90;;;;;;5064886;28;20739;-55
2023/09/16 03:01:23;;;;;;;19.33;17.33;;;13.40;99.90;;;;;;5061666;28;20067;-57
2023/09/16 03:03:48;;;;;;;20.00;16.83;;;13.40;99.90;;;;;;5061544;28;20040;-56
2023/09/16 03:06:14;;;;;;;16.95;15.15;;;13.40;99.90;;;;;;5060564;28;20045;-55
2023/09/16 03:08:40;;;;;;;18.48;16.08;;;13.30;99.90;;;;;;5058811;28;20522;-56
2023/09/16 03:11:06;;;;;;;19.13;16.98;;;13.40;99.90;;;;;;5046746;28;20143;-55
2023/09/16 03:13:32;;;;;;;20.10;17.95;;;13.40;99.90;;;;;;5045846;28;20552;-56
2023/09/16 03:16:23;;;;;;;21.08;18.65;;;13.30;99.90;;;;;;5044911;28;20040;-56
2023/09/16 03:18:51;;;;;;;17.17;15.38;;;13.30;99.90;;;;;;5060645;28;20526;-54
2023/09/16 03:21:18;;;;;;;17.58;15.80;;;13.30;99.90;;;;;;5059530;28;20112;-55
2023/09/16 03:23:45;;;;;;;18.25;15.77;;;13.30;99.90;;;;;;5062943;28;20040;-54
2023/09/16 03:26:12;;;;;;;18.52;15.60;;;13.30;99.90;;;;;;5062793;28;20093;-55
2023/09/16 03:28:41;;;;;;;16.52;14.25;;;13.30;99.90;;;;;;5063295;28;20049;-54
2023/09/16 03:31:07;;;;;;;14.40;12.80;;;13.30;99.90;;;;;;5058404;28;20041;-56
2023/09/16 03:33:33;;;;;;;16.73;14.98;;;13.30;99.90;;;;;;5046056;28;20052;-58
2023/09/16 03:35:59;;;;;;;15.38;13.88;;;13.30;99.90;;;;;;5061376;28;20123;-56
2023/09/16 03:38:28;;;;;;;16.15;14.52;;;13.30;99.90;;;;;;5061010;28;20032;-58
2023/09/16 03:40:53;;;;;;;19.05;16.75;;;13.30;99.90;;;;;;5048145;28;20102;-55
2023/09/16 03:43:19;;;;;;;17.52;15.20;;;13.30;99.90;;;;;;5063363;28;20442;-56
2023/09/16 03:45:45;;;;;;;14.93;13.43;;;13.30;99.90;;;;;;5062661;28;20458;-55
2023/09/16 03:48:10;;;;;;;14.13;12.68;;;13.30;99.90;;;;;;5062037;28;20150;-55
2023/09/16 03:50:36;;;;;;;16.33;13.48;;;13.30;99.90;;;;;;5063329;28;20082;-53
2023/09/16 03:53:02;;;;;;;14.57;13.07;;;13.20;99.90;;;;;;5063950;28;20055;-56
2023/09/16 03:55:28;;;;;;;13.90;11.75;;;13.20;99.90;;;;;;5061715;28;20083;-53
2023/09/16 03:57:53;;;;;;;14.20;11.23;;;13.10;99.90;;;;;;5047072;28;20128;-57
2023/09/16 04:00:19;;;;;;;13.20;11.90;;;13.10;99.90;;;;;;5046942;28;20580;-55
2023/09/16 04:02:45;;;;;;;14.70;13.20;;;13.10;99.90;;;;;;5064757;28;20032;-56
2023/09/16 04:05:10;;;;;;;12.88;11.60;;;13.10;99.90;;;;;;5063923;28;20045;-55
2023/09/16 04:07:36;;;;;;;16.67;14.98;;;13.10;99.90;;;;;;5060563;28;20044;-57
2023/09/16 04:10:03;;;;;;;12.20;10.95;;;13.10;99.90;;;;;;5043847;28;20075;-57
2023/09/16 04:12:29;;;;;;;16.63;14.85;;;13.00;99.90;;;;;;5063531;28;20036;-56
2023/09/16 04:14:54;;;;;;;11.65;10.32;;;13.00;99.90;;;;;;5045691;28;20036;-55
2023/09/16 04:17:21;;;;;;;14.35;12.95;;;13.00;99.90;;;;;;5062026;28;20048;-55
2023/09/16 04:19:46;;;;;;;11.55;10.35;;;13.00;99.90;;;;;;5044112;28;20064;-56
2023/09/16 04:22:12;;;;;;;18.45;15.40;;;13.00;99.90;;;;;;5063878;28;20654;-56
2023/09/16 04:24:38;;;;;;;13.20;11.85;;;13.00;99.90;;;;;;5062309;28;20064;-53
2023/09/16 04:27:03;;;;;;;16.30;14.35;;;13.00;99.90;;;;;;5065035;28;20055;-57
2023/09/16 04:29:29;;;;;;;15.45;11.82;;;13.00;99.90;;;;;;5044768;28;20411;-55
2023/09/16 04:31:55;;;;;;;12.77;11.43;;;13.00;99.90;;;;;;5060229;28;20044;-56
2023/09/16 04:34:21;;;;;;;15.07;13.48;;;13.00;99.90;;;;;;5064286;28;20080;-55
2023/09/16 04:36:47;;;;;;;14.30;12.77;;;12.90;99.90;;;;;;5063098;28;20112;-52
2023/09/16 04:39:12;;;;;;;14.65;13.13;;;12.90;99.90;;;;;;5044311;28;20482;-52
2023/09/16 04:41:38;;;;;;;12.40;11.10;;;12.80;99.90;;;;;;5026382;28;20475;-55
2023/09/16 04:44:04;;;;;;;15.70;11.05;;;12.80;99.90;;;;;;5045315;28;20041;-57
2023/09/16 04:46:29;;;;;;;12.98;11.73;;;12.80;99.90;;;;;;5062017;28;20040;-54
2023/09/16 04:48:55;;;;;;;15.60;14.00;;;12.70;99.90;;;;;;5060903;28;20106;-51
2023/09/16 04:51:21;;;;;;;14.80;12.45;;;12.70;99.90;;;;;;5063444;28;20049;-51
2023/09/16 04:53:49;;;;;;;13.45;11.85;;;12.70;99.90;;;;;;5045616;28;20677;-54
2023/09/16 04:56:15;;;;;;;11.70;10.48;;;12.70;99.90;;;;;;5061526;28;20117;-54
2023/09/16 04:58:41;;;;;;;13.52;12.18;;;12.70;99.90;;;;;;5059640;28;20507;-53
2023/09/16 05:01:07;;;;;;;14.30;12.90;;;12.70;99.90;;;;;;5064321;28;20044;-54
2023/09/16 05:03:33;;;;;;;13.68;12.32;;;12.70;99.90;;;;;;5064276;28;20036;-55
2023/09/16 05:05:59;;;;;;;14.25;12.75;;;12.70;99.90;;;;;;5059758;28;20047;-55
2023/09/16 05:08:25;;;;;;;18.70;15.68;;;12.70;99.90;;;;;;5043450;28;20399;-53
2023/09/16 05:10:55;;;;;;;16.15;14.43;;;12.70;99.90;;;;;;5063296;28;20045;-55
2023/09/16 05:13:21;;;;;;;17.05;15.25;;;12.70;99.90;;;;;;5066037;28;20048;-53
2023/09/16 05:15:48;;;;;;;13.60;12.13;;;12.60;99.90;;;;;;5061831;28;20040;-53
2023/09/16 05:18:14;;;;;;;14.02;12.60;;;12.60;99.90;;;;;;5064211;28;20106;-53
2023/09/16 05:20:40;;;;;;;15.43;13.95;;;12.60;99.90;;;;;;5066148;28;20036;-52
2023/09/16 05:23:06;;;;;;;16.95;15.15;;;12.60;99.90;;;;;;5050225;28;20040;-54
2023/09/16 05:25:31;;;;;;;16.02;14.38;;;12.60;99.90;;;;;;5047689;28;20039;-57
2023/09/16 05:27:57;;;;;;;16.90;15.25;;;12.60;99.90;;;;;;5064102;28;20048;-53
2023/09/16 05:30:23;;;;;;;14.98;13.45;;;12.60;99.90;;;;;;5049172;28;20467;-55
2023/09/16 05:32:49;;;;;;;15.48;13.93;;;12.60;99.90;;;;;;5059280;28;20071;-56
2023/09/16 05:35:14;;;;;;;17.92;16.08;;;12.60;99.90;;;;;;5062796;28;20040;-57
2023/09/16 05:37:40;;;;;;;13.45;11.90;;;12.50;99.90;;;;;;5060831;28;20596;-55
2023/09/16 05:40:06;;;;;;;15.07;13.43;;;12.50;99.90;;;;;;5060090;28;20049;-53
2023/09/16 05:42:32;;;;;;;16.98;15.10;;;12.60;99.90;;;;;;5048414;28;20033;-54
2023/09/16 05:45:00;;;;;;;15.13;13.57;;;12.60;99.90;;;;;;5066172;28;20055;-55
2023/09/16 05:47:31;;;;;;;14.73;13.23;;;12.60;99.90;;;;;;5063588;28;20058;-52
2023/09/16 05:49:58;;;;;;;13.23;10.90;;;12.60;99.90;;;;;;5065942;28;20058;-55
2023/09/16 05:52:23;;;;;;;13.88;12.48;;;12.60;99.90;;;;;;5065785;28;20032;-55
2023/09/16 05:54:49;;;;;;;14.38;11.68;;;12.60;99.90;;;;;;5063314;28;20032;-53
2023/09/16 05:57:15;;;;;;;13.27;11.98;;;12.60;99.90;;;;;;5058076;28;20063;-55
2023/09/16 05:59:40;;;;;;;13.90;12.48;;;12.70;99.90;;;;;;5063813;28;20040;-53
2023/09/16 06:02:06;;;;;;;12.35;11.15;;;12.70;99.90;;;;;;5048198;28;20041;-53
2023/09/16 06:04:32;;;;;;;14.75;12.63;;;12.70;99.90;;;;;;5047049;28;20135;-56
2023/09/16 06:06:57;;;;;;;13.20;11.80;;;12.80;99.90;;;;;;5064141;28;20578;-55
2023/09/16 06:09:23;;;;;;;15.27;13.77;;;12.90;99.90;;;;;;5045998;28;20044;-53
2023/09/16 06:11:49;;;;;;;13.68;12.25;;;12.90;99.90;;;;;;5063534;28;20044;-55
2023/09/16 06:14:15;;;;;;;15.90;14.30;;;13.00;99.90;;;;;;5062916;28;20056;-54
2023/09/16 06:16:40;;;;;;;16.67;15.05;;;13.10;99.90;;;;;;5064193;28;20083;-56
2023/09/16 06:19:06;;;;;;;20.13;18.10;;;13.20;99.90;;;;;;5063979;28;20676;-56
2023/09/16 06:21:32;;;;;;;21.77;19.48;;;13.30;99.90;;;;;;5071824;28;20061;-54
2023/09/16 06:23:59;;;;;;;16.80;14.88;;;13.40;99.90;;;;;;5046778;28;20041;-53
2023/09/16 06:26:25;;;;;;;23.85;21.45;;;13.50;99.90;;;;;;5065819;28;20052;-52
2023/09/16 06:28:50;;;;;;;32.03;27.65;;;13.60;99.90;;;;;;5046235;28;20113;-56
2023/09/16 06:31:16;;;;;;;26.67;23.75;;;13.70;99.90;;;;;;5047399;28;20123;-55
2023/09/16 06:33:42;;;;;;;33.08;29.55;;;13.70;99.90;;;;;;5064647;28;20377;-56
2023/09/16 06:36:08;;;;;;;27.50;24.73;;;13.80;99.90;;;;;;5062007;28;20044;-54
2023/09/16 06:38:33;;;;;;;27.00;24.15;;;13.90;99.90;;;;;;5063288;28;20051;-53
2023/09/16 06:40:59;;;;;;;30.75;27.58;;;14.00;99.90;;;;;;5064686;28;20120;-54
2023/09/16 06:43:25;;;;;;;31.98;26.95;;;14.10;99.90;;;;;;5059525;28;20036;-55
2023/09/16 06:45:51;;;;;;;21.40;19.17;;;14.10;99.90;;;;;;5062946;28;20136;-57
2023/09/16 06:48:16;;;;;;;22.30;20.15;;;14.20;99.90;;;;;;5044605;28;20044;-53
2023/09/16 06:50:43;;;;;;;23.83;21.30;;;14.30;99.90;;;;;;5064501;28;20562;-56
2023/09/16 06:53:09;;;;;;;27.80;24.92;;;14.40;99.90;;;;;;5067719;28;20037;-59
2023/09/16 06:55:35;;;;;;;23.58;21.20;;;14.50;99.90;;;;;;5048997;28;20063;-58
2023/09/16 06:58:04;;;;;;;28.30;25.33;;;14.60;99.90;;;;;;5065476;28;20040;-58
2023/09/16 07:00:30;;;;;;;23.27;20.85;;;14.70;99.90;;;;;;5048736;28;20044;-58
2023/09/16 07:02:58;;;;;;;23.45;21.05;;;14.80;99.90;;;;;;5062879;28;20052;-58
2023/09/16 07:05:24;;;;;;;25.45;22.75;;;14.90;99.90;;;;;;5060652;28;20041;-59
2023/09/16 07:07:52;;;;;;;23.60;21.20;;;15.00;99.90;;;;;;5061691;28;20044;-58
2023/09/16 07:10:19;;;;;;;24.15;21.75;;;15.10;99.90;;;;;;5032501;28;20573;-57
2023/09/16 07:12:45;;;;;;;22.05;19.85;;;15.20;99.90;;;;;;5047093;28;20598;-58
2023/09/16 07:15:10;;;;;;;24.00;21.60;;;15.30;99.90;;;;;;5042110;28;20519;-57
2023/09/16 07:17:36;;;;;;;20.55;18.50;;;15.40;99.90;;;;;;5061374;28;20060;-57
2023/09/16 07:20:02;;;;;;;23.38;21.10;;;15.50;99.90;;;;;;5062859;28;20112;-58
2023/09/16 07:22:28;;;;;;;21.42;19.13;;;15.70;99.90;;;;;;5059653;28;20511;-59
2023/09/16 07:24:54;;;;;;;21.40;19.23;;;15.80;99.90;;;;;;5060096;28;20460;-56
2023/09/16 07:27:19;;;;;;;18.33;16.58;;;16.00;99.90;;;;;;5044890;28;20067;-57
2023/09/16 07:29:45;;;;;;;20.73;18.52;;;16.10;99.90;;;;;;5061385;28;20054;-58
2023/09/16 07:32:11;;;;;;;23.05;20.75;;;16.20;99.90;;;;;;5058669;28;20472;-57
2023/09/16 07:34:36;;;;;;;22.10;20.00;;;16.30;99.90;;;;;;5062097;28;20037;-57
2023/09/16 07:37:03;;;;;;;20.55;18.48;;;16.40;99.90;;;;;;5063023;28;20528;-57
2023/09/16 07:39:29;;;;;;;18.35;16.48;;;16.50;99.90;;;;;;5061602;28;20069;-58
2023/09/16 07:41:56;;;;;;;19.52;17.70;;;16.60;99.90;;;;;;5031621;28;20040;-56
2023/09/16 07:44:21;;;;;;;20.58;18.48;;;16.80;99.90;;;;;;5063802;28;20072;-57
2023/09/16 07:46:48;;;;;;;19.90;17.90;;;16.90;99.90;;;;;;5062661;28;20090;-56
2023/09/16 07:49:17;;;;;;;17.35;15.55;;;17.00;99.90;;;;;;5047031;28;20162;-58
2023/09/16 07:51:45;;;;;;;17.48;15.65;;;17.10;99.90;;;;;;5047667;28;20067;-54
2023/09/16 07:54:14;;;;;;;17.88;16.17;;;17.30;99.90;;;;;;5063649;28;20659;-58
2023/09/16 07:56:40;;;;;;;16.73;15.05;;;17.40;99.90;;;;;;5058835;28;20037;-58
2023/09/16 07:59:06;;;;;;;15.68;14.15;;;17.50;99.90;;;;;;5057875;28;20049;-58
2023/09/16 08:01:31;;;;;;;16.65;14.93;;;17.70;99.90;;;;;;5049434;28;20094;-58
2023/09/16 08:03:57;;;;;;;18.33;16.30;;;17.80;99.90;;;;;;5060726;28;20664;-56
2023/09/16 08:06:23;;;;;;;19.92;16.98;;;17.90;99.90;;;;;;5065323;28;20040;-58
2023/09/16 08:08:49;;;;;;;16.98;15.25;;;18.00;99.90;;;;;;5059714;28;20040;-56
2023/09/16 08:11:15;;;;;;;17.63;15.95;;;18.20;99.90;;;;;;5043926;28;20039;-56
2023/09/16 08:13:41;;;;;;;17.80;15.98;;;18.30;99.90;;;;;;5058341;28;20167;-57
2023/09/16 08:16:07;;;;;;;16.13;14.43;;;18.40;99.90;;;;;;5062563;28;20136;-57
2023/09/16 08:18:32;;;;;;;17.77;15.93;;;18.50;99.90;;;;;;5045398;28;20032;-58
2023/09/16 08:21:00;;;;;;;16.63;14.93;;;18.60;99.90;;;;;;5062709;28;20710;-58
2023/09/16 08:23:26;;;;;;;15.18;13.65;;;18.70;99.90;;;;;;5065277;28;20048;-58
2023/09/16 08:25:52;;;;;;;15.10;13.60;;;18.90;99.90;;;;;;5059675;28;20090;-58
2023/09/16 08:28:18;;;;;;;13.90;12.38;;;18.90;99.90;;;;;;5060668;28;20041;-58
2023/09/16 08:30:43;;;;;;;14.70;13.32;;;19.10;99.90;;;;;;5060390;28;20037;-59
2023/09/16 08:33:09;;;;;;;16.90;14.35;;;19.20;99.90;;;;;;5062867;28;20024;-55
2023/09/16 08:35:35;;;;;;;13.90;12.35;;;19.30;99.90;;;;;;5047895;28;20040;-56
2023/09/16 08:38:02;;;;;;;15.15;13.55;;;19.50;99.90;;;;;;5058733;28;20044;-57
2023/09/16 08:40:32;;;;;;;14.88;13.25;;;19.60;99.90;;;;;;5062449;28;20127;-57
2023/09/16 08:43:18;;;;;;;12.35;10.73;;;19.70;99.90;;;;;;5063877;28;20070;-57
2023/09/16 08:45:46;;;;;;;13.60;11.32;;;19.90;99.90;;;;;;5060490;28;20063;-57
2023/09/16 08:48:15;;;;;;;10.73;9.63;;;19.90;99.90;;;;;;5061565;28;20036;-57
2023/09/16 08:50:43;;;;;;;11.88;10.35;;;20.00;99.90;;;;;;5065529;28;20574;-57
2023/09/16 08:53:12;;;;;;;12.50;10.82;;;20.20;99.90;;;;;;5066495;28;20032;-57
2023/09/16 08:55:38;;;;;;;17.45;11.63;;;20.30;99.90;;;;;;5062582;28;20068;-57
2023/09/16 08:58:06;;;;;;;12.02;10.75;;;20.40;99.90;;;;;;5047401;28;20559;-57
2023/09/16 09:00:32;;;;;;;13.63;11.73;;;20.50;99.90;;;;;;5046751;28;20125;-57
2023/09/16 09:02:58;;;;;;;14.52;11.65;;;20.60;99.90;;;;;;5065247;28;20127;-56
2023/09/16 09:05:26;;;;;;;13.27;11.82;;;20.70;99.90;;;;;;5066751;28;20123;-57
2023/09/16 09:07:52;;;;;;;13.48;12.13;;;20.80;99.90;;;;;;5063328;28;20071;-58
2023/09/16 09:10:18;;;;;;;13.80;11.27;;;20.90;99.90;;;;;;5056534;28;20045;-57
2023/09/16 09:12:44;;;;;;;13.25;11.85;;;21.00;99.90;;;;;;5064913;28;20055;-57
2023/09/16 09:15:12;;;;;;;11.82;10.60;;;21.10;99.90;;;;;;5049395;28;20630;-57
2023/09/16 09:17:40;;;;;;;14.93;11.10;;;21.20;99.90;;;;;;5064820;28;20036;-57
2023/09/16 09:20:11;;;;;;;13.73;12.32;;;21.30;99.90;;;;;;5064730;28;20040;-57
2023/09/16 09:22:40;;;;;;;12.75;11.15;;;21.30;99.90;;;;;;5063392;28;20048;-56
2023/09/16 09:25:07;;;;;;;12.25;10.93;;;21.40;99.90;;;;;;5060876;28;20059;-57
2023/09/16 09:27:33;;;;;;;12.55;11.25;;;21.50;99.90;;;;;;5064185;28;20428;-57
2023/09/16 09:29:59;;;;;;;11.52;10.20;;;21.70;99.90;;;;;;5062496;28;20122;-58
2023/09/16 09:32:32;;;;;;;10.73;9.48;;;21.80;99.90;;;;;;5065299;28;20059;-56
2023/09/16 09:35:04;;;;;;;11.77;9.82;;;21.90;99.90;;;;;;5062115;28;20052;-55
2023/09/16 09:37:30;;;;;;;12.85;9.15;;;22.00;99.90;;;;;;5064351;28;20080;-56
2023/09/16 09:40:12;;;;;;;12.98;11.00;;;22.10;99.90;;;;;;5062246;28;20587;-58
2023/09/16 09:42:42;;;;;;;9.63;7.38;;;22.10;99.90;;;;;;5063607;28;20048;-56
2023/09/16 09:45:09;;;;;;;7.80;6.20;;;22.20;99.90;;;;;;5058203;28;20045;-55
2023/09/16 09:47:38;;;;;;;9.32;6.93;;;22.20;99.90;;;;;;5062387;28;20040;-57
2023/09/16 09:50:09;;;;;;;8.07;6.78;;;22.40;99.90;;;;;;5065660;28;20609;-58
2023/09/16 09:52:35;;;;;;;11.43;7.50;;;22.40;99.90;;;;;;5050032;28;20040;-57
2023/09/16 09:55:01;;;;;;;13.65;8.18;;;22.50;99.90;;;;;;5046625;28;20044;-57
2023/09/16 09:57:27;;;;;;;16.25;8.35;;;22.50;99.90;;;;;;5066165;28;20106;-58
2023/09/16 09:59:55;;;;;;;11.63;8.85;;;22.60;99.90;;;;;;5065172;28;20482;-56
2023/09/16 10:02:26;;;;;;;10.68;8.25;;;22.70;99.90;;;;;;5065992;28;20052;-56
2023/09/16 10:05:02;;;;;;;10.63;7.55;;;22.80;99.90;;;;;;5066355;28;20055;-56
2023/09/16 10:07:31;;;;;;;10.85;7.65;;;22.80;99.90;;;;;;5063095;28;20044;-57
2023/09/16 10:09:57;;;;;;;12.18;7.68;;;23.00;99.90;;;;;;5060755;28;20133;-57
2023/09/16 10:12:24;;;;;;;9.45;6.50;;;23.10;99.90;;;;;;5079989;28;20036;-57
2023/09/16 10:14:51;;;;;;;10.43;6.75;;;23.30;99.90;;;;;;5064471;28;20044;-56
2023/09/16 10:17:18;;;;;;;7.15;4.90;;;23.40;99.70;;;;;;5047744;28;20101;-56
2023/09/16 10:19:44;;;;;;;6.53;5.20;;;23.40;98.80;;;;;;5047577;28;20075;-56
2023/09/16 10:22:11;;;;;;;8.18;5.10;;;23.50;98.30;;;;;;5065635;28;20132;-57
2023/09/16 10:24:41;;;;;;;7.90;5.50;;;23.50;97.70;;;;;;5059932;28;20036;-58
2023/09/16 10:27:17;;;;;;;6.95;4.70;;;23.50;98.00;;;;;;5066017;28;20040;-53
2023/09/16 10:29:46;;;;;;;7.80;5.00;;;23.60;98.00;;;;;;5045004;28;20041;-57
2023/09/16 10:32:13;;;;;;;6.97;5.20;;;23.70;97.60;;;;;;5061721;28;20032;-53
2023/09/16 10:34:43;;;;;;;7.05;4.90;;;23.80;97.90;;;;;;5062843;28;20062;-55
2023/09/16 10:37:09;;;;;;;5.07;4.30;;;24.00;97.90;;;;;;5045774;28;20045;-55
2023/09/16 10:39:38;;;;;;;9.48;5.47;;;24.00;97.20;;;;;;5063109;28;20048;-58
2023/09/16 10:42:05;;;;;;;8.20;5.35;;;24.10;97.00;;;;;;5060309;28;20507;-58
2023/09/16 10:44:32;;;;;;;5.80;4.85;;;24.10;96.90;;;;;;5046493;28;20052;-54
2023/09/16 10:46:59;;;;;;;12.00;4.95;;;24.20;96.90;;;;;;5063911;28;20731;-53
2023/09/16 10:49:25;;;;;;;8.05;4.47;;;24.20;96.30;;;;;;5062266;28;20469;-55
2023/09/16 10:51:53;;;;;;;5.60;4.32;;;24.20;96.80;;;;;;5063014;28;20120;-56
2023/09/16 10:54:31;;;;;;;6.45;4.60;;;24.40;96.80;;;;;;5061751;28;20543;-56
2023/09/16 10:57:03;;;;;;;5.93;4.38;;;24.50;96.00;;;;;;5064324;28;20057;-57
2023/09/16 10:59:33;;;;;;;5.07;3.40;;;24.50;96.10;;;;;;5059594;28;20507;-57
2023/09/16 11:02:12;;;;;;;6.65;4.53;;;24.50;95.60;;;;;;5046933;28;20130;-55
2023/09/16 11:04:39;;;;;;;5.50;3.97;;;24.50;95.70;;;;;;5061334;28;20138;-57
2023/09/16 11:07:04;;;;;;;6.47;4.68;;;24.50;95.30;;;;;;5064283;28;20048;-55
2023/09/16 11:09:30;;;;;;;7.72;5.13;;;24.60;95.60;;;;;;5061746;28;20380;-55
2023/09/16 11:11:57;;;;;;;9.35;4.97;;;24.70;96.00;;;;;;5061298;28;20396;-56
2023/09/16 11:14:23;;;;;;;8.02;4.82;;;24.80;95.50;;;;;;5065889;28;20040;-53
2023/09/16 11:16:52;;;;;;;8.27;4.18;;;24.80;95.50;;;;;;5063524;28;20702;-58
2023/09/16 11:19:24;;;;;;;5.10;4.10;;;25.00;95.70;;;;;;5061958;28;20052;-57
2023/09/16 11:21:51;;;;;;;6.85;4.25;;;25.10;95.40;;;;;;5058483;28;20159;-55
2023/09/16 11:24:17;;;;;;;7.78;4.78;;;25.10;95.80;;;;;;5061836;28;20025;-54
2023/09/16 11:26:47;;;;;;;7.50;4.20;;;25.20;95.40;;;;;;5065100;28;20112;-52
2023/09/16 11:29:24;;;;;;;7.20;3.60;;;25.20;95.20;;;;;;5057018;28;20044;-57
2023/09/16 11:31:50;;;;;;;5.32;3.75;;;25.30;95.40;;;;;;5063376;28;20043;-58
2023/09/16 11:34:19;;;;;;;5.15;3.58;;;25.50;95.50;;;;;;5062208;28;20090;-56
2023/09/16 11:36:58;;;;;;;4.43;3.45;;;25.50;95.00;;;;;;5063167;28;20044;-55
2023/09/16 11:39:40;;;;;;;4.88;3.40;;;25.60;94.80;;;;;;5052432;28;20071;-56
2023/09/16 11:42:08;;;;;;;6.88;4.00;;;25.70;93.90;;;;;;5063226;28;20109;-57
2023/09/16 11:44:38;;;;;;;5.60;3.85;;;25.70;94.30;;;;;;5060728;28;20481;-57
2023/09/16 11:47:04;;;;;;;4.28;3.22;;;25.50;93.90;;;;;;5060666;28;20044;-56
2023/09/16 11:49:34;;;;;;;4.63;3.22;;;25.40;94.20;;;;;;5059990;28;20040;-58
2023/09/16 11:52:00;;;;;;;6.68;3.22;;;25.40;94.40;;;;;;5047339;28;20049;-55
2023/09/16 11:54:26;;;;;;;7.10;4.22;;;25.60;94.20;;;;;;5061360;28;20045;-57
2023/09/16 11:56:54;;;;;;;5.72;3.40;;;25.60;93.50;;;;;;5063459;28;20037;-56
2023/09/16 11:59:20;;;;;;;6.43;3.95;;;25.40;93.70;;;;;;5061765;28;20040;-55
2023/09/16 12:01:46;;;;;;;6.22;3.67;;;25.50;93.70;;;;;;5059156;28;20040;-57
2023/09/16 12:04:15;;;;;;;6.85;3.15;;;25.50;93.60;;;;;;5062319;28;20051;-59
2023/09/16 12:06:42;;;;;;;5.55;3.08;;;25.60;93.60;;;;;;5063172;28;20040;-58
2023/09/16 12:09:16;;;;;;;5.85;3.72;;;25.80;94.00;;;;;;5061478;28;20098;-54
2023/09/16 12:11:43;;;;;;;4.82;3.50;;;26.00;93.60;;;;;;5061864;28;20048;-55
2023/09/16 12:14:10;;;;;;;5.13;3.65;;;26.00;93.40;;;;;;5060678;28;20101;-55
2023/09/16 12:16:39;;;;;;;4.38;3.03;;;26.10;93.10;;;;;;5061826;28;20036;-59
2023/09/16 12:19:05;;;;;;;4.13;3.20;;;26.20;93.20;;;;;;5061013;28;20044;-58
2023/09/16 12:21:31;;;;;;;6.03;3.30;;;26.00;91.80;;;;;;5064317;28;20387;-55
2023/09/16 12:23:57;;;;;;;4.50;3.03;;;25.60;92.60;;;;;;5064401;28;20056;-55
2023/09/16 12:26:23;;;;;;;4.68;2.95;;;25.50;92.80;;;;;;5048493;28;20040;-55
2023/09/16 12:28:49;;;;;;;5.30;3.38;;;25.60;92.70;;;;;;5047406;28;20078;-55
2023/09/16 12:31:21;;;;;;;4.65;3.08;;;25.80;92.50;;;;;;5067026;28;20048;-57